Menu Close Menu
Station Historical Data
Daily Summary for April 24, 2017 Units:  Metric    English   Both
« Previous Day
Next Day »
Daily Weekly Monthly Yearly Custom
  High: Low: Average:
Temperature: 17.6 °C 11.7 °C 13.7 °C
Dew Point: 15.6 °C 10.2 °C 12.2 °C
Humidity: 92% 86% 91%
Wind Speed: 0km/h 0km/h 0km/h
Wind Gust: 8km/h - -
Wind- -
Pressure: 1009.7 hPa 1007 hPa -
Precipitation: 1.27 mm    
Historical Graphs
 
 
Tabular Data for April 24, 2017
Time Temperature Dew Point Pressure Wind Wind Speed Wind Gust Humidity Rainfall Rate (Hourly) solar Conditions
00:00 11.7 °C 10.2 °C 1009.7 hPa Calm     91% 0 mm WeatherDisplay:10.37 W/m2 RA
00:15 11.7 °C 10.2 °C 1009.7 hPa Calm     91% 0 mm WeatherDisplay:10.37 W/m2 SCT
00:30 11.7 °C 10.2 °C 1009.7 hPa Calm     91% 0 mm WeatherDisplay:10.37 W/m2 SCT
00:45 11.7 °C 10.2 °C 1009.7 hPa Calm     91% 0 mm WeatherDisplay:10.37 W/m2 SCT
01:00 11.7 °C 10.2 °C 1009.7 hPa Calm     91% 0 mm WeatherDisplay:10.37 W/m2 SCT
01:15 11.7 °C 10.2 °C 1009.7 hPa Calm     91% 0 mm WeatherDisplay:10.37 W/m2 SCT
01:30 11.7 °C 10.2 °C 1009.4 hPa Calm     91% 0 mm WeatherDisplay:10.37 W/m2 SCT
01:45 11.7 °C 10.2 °C 1009.4 hPa Calm     91% 0 mm WeatherDisplay:10.37 W/m2 SCT
02:00 11.7 °C 10.2 °C 1009 hPa Calm     91% 0 mm WeatherDisplay:10.37 W/m2 SCT
02:30 11.7 °C 10.2 °C 1008.7 hPa Calm     91% 0 mm WeatherDisplay:10.37 W/m2 SCT
02:45 11.7 °C 10.2 °C 1008.7 hPa Calm     91% 0 mm WeatherDisplay:10.37 W/m2 SCT
03:00 11.7 °C 10.2 °C 1008.4 hPa Calm     91% 0 mm WeatherDisplay:10.37 W/m2 SCT
03:15 11.7 °C 10.2 °C 1008.4 hPa Calm     91% 0 mm WeatherDisplay:10.37 W/m2 SCT
03:30 11.7 °C 10.2 °C 1008.7 hPa Calm     91% 0 mm WeatherDisplay:10.37 W/m2 SCT
03:45 11.7 °C 10.2 °C 1008.7 hPa Calm     91% 0 mm WeatherDisplay:10.37 W/m2 SCT
04:00 11.7 °C 10.2 °C 1008.4 hPa Calm     91% 0 mm WeatherDisplay:10.37 W/m2 SCT
04:15 11.7 °C 10.2 °C 1008.4 hPa Calm     91% 0 mm WeatherDisplay:10.37 W/m2 SCT
04:30 11.7 °C 10.2 °C 1008 hPa Calm     91% 0 mm WeatherDisplay:10.37 W/m2 SCT
04:45 11.7 °C 10.2 °C 1008 hPa Calm     91% 0 mm WeatherDisplay:10.37 W/m2 SCT
05:00 11.7 °C 10.2 °C 1008 hPa Calm     91% 0 mm WeatherDisplay:10.37 W/m2 SCT
05:15 11.7 °C 10.2 °C 1007.7 hPa Calm     91% 0 mm WeatherDisplay:10.37 W/m2 SCT
05:30 11.7 °C 10.2 °C 1008 hPa Calm     91% 0 mm WeatherDisplay:10.37 W/m2 SCT
05:45 11.7 °C 10.2 °C 1008 hPa Calm     91% 0 mm WeatherDisplay:10.37 W/m2 SCT
06:00 11.7 °C 10.2 °C 1008 hPa Calm     91% 0 mm WeatherDisplay:10.37 W/m2 SCT
06:15 11.7 °C 10.2 °C 1007.7 hPa Calm     91% 0 mm WeatherDisplay:10.37 W/m2 SCT
06:30 11.7 °C 10.2 °C 1008 hPa Calm     91% 0 mm WeatherDisplay:10.37 W/m2 SCT
06:45 11.7 °C 10.2 °C 1007.7 hPa Calm     91% 0 mm WeatherDisplay:10.37 W/m2 SCT
07:00 11.7 °C 10.2 °C 1007.7 hPa Calm     91% 0 mm WeatherDisplay:10.37 W/m2 SCT
07:15 11.7 °C 10.2 °C 1008 hPa Calm     91% 0 mm WeatherDisplay:10.37 W/m2 SCT
07:30 11.7 °C 10.2 °C 1008 hPa Calm     91% 0 mm WeatherDisplay:10.37 W/m2 SCT
07:45 11.7 °C 10.2 °C 1008 hPa Calm     91% 0 mm WeatherDisplay:10.37 W/m2 SCT
08:00 11.7 °C 10.2 °C 1008 hPa Calm     91% 0 mm WeatherDisplay:10.37 W/m2 SCT
08:15 11.7 °C 10.2 °C 1008.4 hPa Calm     91% 0 mm WeatherDisplay:10.37 W/m2 SCT
08:30 11.7 °C 10.2 °C 1008.4 hPa Calm     91% 0 mm WeatherDisplay:10.37 W/m2 SCT
08:45 11.7 °C 10.2 °C 1008.7 hPa Calm     91% 0 mm WeatherDisplay:10.37 W/m2 SCT
09:00 11.7 °C 10.2 °C 1008.7 hPa Calm     91% 0 mm WeatherDisplay:10.37 W/m2 SCT
09:15 11.7 °C 10.2 °C 1008.7 hPa Calm     91% 0 mm WeatherDisplay:10.37 W/m2 SCT
09:30 11.7 °C 10.2 °C 1008.7 hPa Calm     91% 0 mm WeatherDisplay:10.37 W/m2 SCT
09:45 11.7 °C 10.2 °C 1008.7 hPa Calm     91% 0 mm WeatherDisplay:10.37 W/m2 SCT
10:00 12 °C 10.7 °C 1008.7 hPa Calm   1.6 km/h 92% 0 mm WeatherDisplay:10.37 W/m2 SCT
10:30 12.3 °C 11 °C 1009 hPa Calm   1.6 km/h 92% 0.25 mm WeatherDisplay:10.37 W/m2 SCT
10:45 12.3 °C 11.1 °C 1009 hPa Calm   1.6 km/h 92% 0.25 mm WeatherDisplay:10.37 W/m2 SCT
11:00 12.4 °C 11.2 °C 1009 hPa Calm   1.6 km/h 92% 0 mm WeatherDisplay:10.37 W/m2 SCT
11:15 12.6 °C 11.3 °C 1009 hPa Calm   1.6 km/h 92% 0 mm WeatherDisplay:10.37 W/m2 SCT
11:30 12.6 °C 11.3 °C 1009 hPa Calm   1.6 km/h 92% 0.25 mm WeatherDisplay:10.37 W/m2 SCT
11:45 12.7 °C 11.4 °C 1009 hPa Calm   3.2 km/h 92% 0 mm WeatherDisplay:10.37 W/m2 SCT
12:00 12.9 °C 11.7 °C 1009 hPa Calm   3.2 km/h 92% 0 mm WeatherDisplay:10.37 W/m2 SCT
12:15 13.1 °C 11.8 °C 1009 hPa Calm   1.6 km/h 92% 0 mm WeatherDisplay:10.37 W/m2 SCT
12:30 13.2 °C 11.9 °C 1009 hPa Calm     92% 0 mm WeatherDisplay:10.37 W/m2 SCT
12:45 13.4 °C 12.1 °C 1009 hPa Calm     92% 0 mm WeatherDisplay:10.37 W/m2 SCT
13:00 13.6 °C 12.3 °C 1009 hPa Calm     92% 0 mm WeatherDisplay:10.37 W/m2 SCT
13:15 13.7 °C 12.2 °C 1008.7 hPa Calm   1.6 km/h 91% 0 mm WeatherDisplay:10.37 W/m2 SCT
13:30 13.9 °C 12.4 °C 1008.4 hPa Calm   1.6 km/h 91% 0 mm WeatherDisplay:10.37 W/m2 SCT
13:45 14.4 °C 12.8 °C 1008.4 hPa Calm   1.6 km/h 90% 0 mm WeatherDisplay:10.37 W/m2 SCT
14:00 14.7 °C 12.9 °C 1008.4 hPa Calm   3.2 km/h 89% 0 mm WeatherDisplay:10.37 W/m2 SCT
14:15 14.8 °C 13 °C 1008.4 hPa Calm   1.6 km/h 89% 0 mm WeatherDisplay:10.37 W/m2 SCT
14:30 14.9 °C 13.1 °C 1008.4 hPa Calm   1.6 km/h 89% 0 mm WeatherDisplay:10.37 W/m2 SCT
15:00 15.6 °C 13.4 °C 1008 hPa Calm   3.2 km/h 87% 0 mm WeatherDisplay:10.37 W/m2 SCT
15:15 15.8 °C 13.6 °C 1008.4 hPa Calm   3.2 km/h 87% 0 mm WeatherDisplay:10.37 W/m2 SCT
15:30 15.6 °C 13.3 °C 1008 hPa Calm   3.2 km/h 86% 0 mm WeatherDisplay:10.37 W/m2 SCT
15:45 15.6 °C 13.4 °C 1008 hPa Calm   1.6 km/h 87% 0 mm WeatherDisplay:10.37 W/m2 SCT
16:00 15.8 °C 13.6 °C 1008 hPa Calm   1.6 km/h 87% 0 mm WeatherDisplay:10.37 W/m2 SCT
16:15 15.9 °C 13.9 °C 1007.7 hPa Calm   3.2 km/h 88% 0 mm WeatherDisplay:10.37 W/m2 SCT
16:45 15.7 °C 14.1 °C 1007.7 hPa Calm   3.2 km/h 90% 0 mm WeatherDisplay:10.37 W/m2 SCT
17:00 15.9 °C 14.5 °C 1007.7 hPa Calm   1.6 km/h 91% 0 mm WeatherDisplay:10.37 W/m2 SCT
17:15 16.4 °C 14.9 °C 1007.3 hPa Calm     91% 0 mm WeatherDisplay:10.37 W/m2 SCT
17:30 16.8 °C 15.4 °C 1007 hPa Calm   3.2 km/h 91% 0 mm WeatherDisplay:10.37 W/m2 SCT
17:45 16.9 °C 14.9 °C 1007.3 hPa Calm   8 km/h 88% 0 mm WeatherDisplay:10.37 W/m2 SCT
18:00 17.6 °C 15.2 °C 1007.3 hPa Calm   1.6 km/h 86% 0 mm WeatherDisplay:10.37 W/m2 SCT
18:15 17.6 °C 15.2 °C 1007.3 hPa Calm   1.6 km/h 86% 0 mm WeatherDisplay:10.37 W/m2 SCT
18:30 17.6 °C 15.6 °C 1007.3 hPa Calm     88% 0 mm WeatherDisplay:10.37 W/m2 SCT
18:45 17.4 °C 15 °C 1007.3 hPa Calm   1.6 km/h 86% 0 mm WeatherDisplay:10.37 W/m2 SCT
19:00 17.2 °C 15 °C 1007.3 hPa Calm   1.6 km/h 87% 0 mm WeatherDisplay:10.37 W/m2 SCT
19:15 17.1 °C 15.2 °C 1007 hPa Calm     89% 0 mm WeatherDisplay:10.37 W/m2 SCT
19:30 16.7 °C 14.7 °C 1007 hPa Calm     88% 0 mm WeatherDisplay:10.37 W/m2 SCT
19:45 16.4 °C 14.6 °C 1007.3 hPa Calm     89% 0 mm WeatherDisplay:10.37 W/m2 SCT
20:00 16.3 °C 14.7 °C 1007.3 hPa Calm     90% 0 mm WeatherDisplay:10.37 W/m2 SCT
20:15 16.3 °C 14.6 °C 1007.3 hPa Calm     90% 0 mm WeatherDisplay:10.37 W/m2 SCT
20:30 16.1 °C 14.7 °C 1007.3 hPa Calm     91% 0 mm WeatherDisplay:10.37 W/m2 SCT
20:45 16.1 °C 14.7 °C 1007.3 hPa Calm     91% 0 mm WeatherDisplay:10.37 W/m2 SCT
21:00 16.1 °C 14.6 °C 1007.3 hPa Calm     91% 0 mm WeatherDisplay:10.37 W/m2 SCT
21:15 16 °C 14.6 °C 1007.3 hPa Calm     91% 0 mm WeatherDisplay:10.37 W/m2 SCT
21:30 15.8 °C 14.3 °C 1007.3 hPa Calm     91% 0 mm WeatherDisplay:10.37 W/m2 SCT
21:45 15.7 °C 14.4 °C 1007.3 hPa Calm     92% 0 mm WeatherDisplay:10.37 W/m2 SCT
22:00 15.6 °C 14.3 °C 1007.3 hPa Calm     92% 0 mm WeatherDisplay:10.37 W/m2 SCT
22:15 15.6 °C 14.3 °C 1007.3 hPa Calm     92% 0 mm WeatherDisplay:10.37 W/m2 SCT
22:30 15.5 °C 14.2 °C 1007.7 hPa Calm     92% 0 mm WeatherDisplay:10.37 W/m2 SCT
22:45 15.4 °C 14.2 °C 1007.3 hPa Calm     92% 0 mm WeatherDisplay:10.37 W/m2 SCT
23:00 15.4 °C 14.1 °C 1007.7 hPa Calm     92% 0 mm WeatherDisplay:10.37 W/m2 SCT
23:15 15.4 °C 14.1 °C 1007.3 hPa Calm     92% 0 mm WeatherDisplay:10.37 W/m2 SCT
23:30 15.3 °C 14 °C 1007.7 hPa Calm     92% 0 mm WeatherDisplay:10.37 W/m2 SCT
23:45 15.1 °C 13.8 °C 1007.7 hPa Calm     92% 0 mm WeatherDisplay:10.37 W/m2 SCT
Piedmont Bend
Compliments of Weather Underground - 4 mb